Time;durP1;ratioP1;P1;durP2;ratioP2;P2;SDS_P1;SDS_P2;PMS_P1;PMS_P2;Temp;Humidity;BMP_temperature;BMP_pressure;BME280_temperature;BME280_humidity;BME280_pressure;Samples;Min_cycle;Max_cycle;Signal;HPM_P1;HPM_P2
2021/11/02 00:02:15;;;;;;;4.85;2.00;;;8.10;96.90;;;;;;5028397;28;20587;-89
2021/11/02 00:04:53;;;;;;;4.80;1.70;;;8.10;97.00;;;;;;5039145;28;20056;-89
2021/11/02 00:07:26;;;;;;;5.22;1.98;;;8.10;97.20;;;;;;5038938;28;20484;-90
2021/11/02 00:09:55;;;;;;;3.90;1.83;;;8.10;97.30;;;;;;5039166;28;20045;-90
2021/11/02 00:12:21;;;;;;;3.85;1.90;;;8.10;97.20;;;;;;5038300;28;20112;-90
2021/11/02 00:14:46;;;;;;;4.13;1.88;;;8.10;97.20;;;;;;5037904;28;20044;-90
2021/11/02 00:17:24;;;;;;;4.60;1.88;;;8.10;97.10;;;;;;5038111;28;20136;-89
2021/11/02 00:19:54;;;;;;;3.92;1.70;;;8.10;97.40;;;;;;5037723;28;20101;-90
2021/11/02 00:22:21;;;;;;;2.88;1.30;;;8.10;97.50;;;;;;5037702;28;20041;-90
2021/11/02 00:27:19;;;;;;;3.28;1.67;;;8.10;97.40;;;;;;5037966;28;20135;-90
2021/11/02 00:29:45;;;;;;;5.10;1.83;;;8.00;97.30;;;;;;5036138;28;20045;-92
2021/11/02 00:32:10;;;;;;;3.90;2.00;;;8.00;97.70;;;;;;5037580;28;20036;-90
2021/11/02 00:34:36;;;;;;;5.53;2.58;;;8.00;97.30;;;;;;5033918;28;20044;-90
2021/11/02 00:37:02;;;;;;;5.68;2.33;;;8.00;97.20;;;;;;5036902;28;20094;-89
2021/11/02 00:39:27;;;;;;;5.03;2.00;;;7.90;97.10;;;;;;5037596;28;20045;-91
2021/11/02 00:41:53;;;;;;;5.68;2.42;;;7.90;97.00;;;;;;5037530;28;20041;-90
2021/11/02 00:44:21;;;;;;;3.47;1.88;;;7.90;97.10;;;;;;5037620;28;20047;-90
2021/11/02 00:46:47;;;;;;;4.55;2.20;;;7.90;97.20;;;;;;5037211;28;20041;-92
2021/11/02 00:49:21;;;;;;;5.75;2.53;;;7.90;97.20;;;;;;5036693;28;20043;-91
2021/11/02 00:51:50;;;;;;;4.90;2.13;;;7.80;97.20;;;;;;5037153;28;20052;-91
2021/11/02 00:54:16;;;;;;;4.15;2.25;;;7.80;97.20;;;;;;5034998;28;20047;-90
2021/11/02 00:56:42;;;;;;;6.25;3.13;;;7.80;97.20;;;;;;5033228;28;20127;-90
2021/11/02 00:59:08;;;;;;;4.78;2.25;;;7.80;97.10;;;;;;5035275;28;20044;-92
2021/11/02 01:01:34;;;;;;;5.63;3.00;;;7.80;97.10;;;;;;5042653;28;20048;-91
2021/11/02 01:04:04;;;;;;;5.57;3.15;;;7.70;97.00;;;;;;5053337;28;20131;-92
2021/11/02 01:06:31;;;;;;;6.22;2.88;;;7.70;97.10;;;;;;5053853;28;20037;-91
2021/11/02 01:08:57;;;;;;;7.72;4.32;;;7.70;97.00;;;;;;5053393;28;20069;-90
2021/11/02 01:11:23;;;;;;;6.15;2.95;;;7.70;96.90;;;;;;5053221;28;20111;-92
2021/11/02 01:13:48;;;;;;;7.00;3.38;;;7.70;96.90;;;;;;5051600;28;20037;-90
2021/11/02 01:16:14;;;;;;;7.40;4.00;;;7.60;96.90;;;;;;5053392;28;20076;-91
2021/11/02 01:18:40;;;;;;;6.07;3.22;;;7.70;97.00;;;;;;5053347;28;20037;-91
2021/11/02 01:21:05;;;;;;;5.25;2.88;;;7.60;96.90;;;;;;5054014;28;20049;-91
2021/11/02 01:23:32;;;;;;;5.32;2.88;;;7.60;96.90;;;;;;5053052;28;20075;-89
2021/11/02 01:25:59;;;;;;;6.03;3.30;;;7.60;97.00;;;;;;5053774;28;20463;-90
2021/11/02 01:28:24;;;;;;;8.50;4.13;;;7.50;97.20;;;;;;5052840;28;20140;-92
2021/11/02 01:30:50;;;;;;;6.15;3.22;;;7.50;97.50;;;;;;5053666;28;20075;-92
2021/11/02 01:33:16;;;;;;;6.07;3.08;;;7.50;97.10;;;;;;5053482;28;20041;-92
2021/11/02 01:35:42;;;;;;;6.18;3.50;;;7.50;97.10;;;;;;5052449;28;20095;-92
2021/11/02 01:38:08;;;;;;;6.07;3.60;;;7.50;97.30;;;;;;5052754;28;20037;-90
2021/11/02 01:40:34;;;;;;;5.38;3.33;;;7.50;97.30;;;;;;5053736;28;20078;-91
2021/11/02 01:43:00;;;;;;;5.47;2.85;;;7.50;97.20;;;;;;5053431;28;20044;-91
2021/11/02 01:45:28;;;;;;;6.03;3.90;;;7.50;97.20;;;;;;5052723;28;20029;-91
2021/11/02 01:47:55;;;;;;;5.82;3.40;;;7.50;97.20;;;;;;5053064;28;20067;-91
2021/11/02 01:50:21;;;;;;;6.35;3.35;;;7.50;97.40;;;;;;5052763;28;20044;-91
2021/11/02 01:52:47;;;;;;;5.18;3.13;;;7.50;97.50;;;;;;5052495;28;20447;-91
2021/11/02 01:55:14;;;;;;;7.60;3.65;;;7.50;97.40;;;;;;5052440;28;20127;-90
2021/11/02 01:57:40;;;;;;;5.80;3.33;;;7.40;97.50;;;;;;5055249;28;20049;-91
2021/11/02 02:00:10;;;;;;;6.20;3.60;;;7.50;97.60;;;;;;5052807;28;20049;-92
2021/11/02 02:03:05;;;;;;;6.88;4.00;;;7.40;97.70;;;;;;5053875;28;20061;-91
2021/11/02 02:06:01;;;;;;;6.32;3.47;;;7.50;97.70;;;;;;5044230;28;20538;-92
2021/11/02 02:08:40;;;;;;;6.28;3.88;;;7.40;97.80;;;;;;5058454;28;20045;-93
2021/11/02 02:11:42;;;;;;;8.75;3.38;;;7.40;97.90;;;;;;5057868;28;20065;-92
2021/11/02 02:14:15;;;;;;;6.88;3.28;;;7.40;97.80;;;;;;5057266;28;20119;-93
2021/11/02 02:16:45;;;;;;;7.55;3.42;;;7.40;97.70;;;;;;5056958;28;20057;-92
2021/11/02 02:19:39;;;;;;;5.75;3.47;;;7.40;97.60;;;;;;5057726;28;20044;-93
2021/11/02 02:22:35;;;;;;;5.25;2.92;;;7.40;97.50;;;;;;5057690;28;20531;-92
2021/11/02 02:25:30;;;;;;;6.38;3.45;;;7.40;97.30;;;;;;5057372;28;20037;-92
2021/11/02 02:28:10;;;;;;;6.03;3.40;;;7.30;97.20;;;;;;5056874;28;20119;-92
2021/11/02 02:30:49;;;;;;;6.30;4.00;;;7.40;97.40;;;;;;5057081;28;20053;-93
2021/11/02 02:33:16;;;;;;;7.97;4.15;;;7.30;97.60;;;;;;5058397;28;20096;-91
2021/11/02 02:35:44;;;;;;;6.22;4.45;;;7.30;97.60;;;;;;5056909;28;20080;-93
2021/11/02 02:38:11;;;;;;;6.18;3.83;;;7.30;97.80;;;;;;5057940;28;20056;-91
2021/11/02 02:40:38;;;;;;;7.63;3.80;;;7.30;97.80;;;;;;5058028;28;20071;-92
2021/11/02 02:43:05;;;;;;;5.65;3.60;;;7.30;97.70;;;;;;5057736;28;20045;-92
2021/11/02 02:45:32;;;;;;;7.45;4.05;;;7.30;97.60;;;;;;5057538;28;20077;-91
2021/11/02 02:47:59;;;;;;;6.70;3.75;;;7.30;97.60;;;;;;5057361;28;20123;-94
2021/11/02 02:50:25;;;;;;;7.45;3.88;;;7.30;97.50;;;;;;5055999;28;20051;-93
2021/11/02 02:52:52;;;;;;;7.07;3.72;;;7.20;97.60;;;;;;5057257;28;20118;-91
2021/11/02 02:55:19;;;;;;;7.35;3.67;;;7.20;97.60;;;;;;5057676;28;20049;-93
2021/11/02 02:57:46;;;;;;;8.80;4.38;;;7.20;97.70;;;;;;5058437;28;20069;-92
2021/11/02 03:00:13;;;;;;;6.45;3.75;;;7.20;97.60;;;;;;5056120;28;20439;-93
2021/11/02 03:02:41;;;;;;;7.93;4.10;;;7.20;97.60;;;;;;5058418;28;20049;-93
2021/11/02 03:05:07;;;;;;;8.43;3.88;;;7.20;97.50;;;;;;5059419;28;20051;-91
2021/11/02 03:07:34;;;;;;;6.80;3.90;;;7.20;97.40;;;;;;5050950;28;20127;-92
2021/11/02 03:10:00;;;;;;;6.50;3.28;;;7.20;97.50;;;;;;5043361;28;20056;-91
2021/11/02 03:12:29;;;;;;;6.65;3.67;;;7.20;97.40;;;;;;5044024;28;20053;-92
2021/11/02 03:17:32;;;;;;;6.97;3.90;;;7.20;97.50;;;;;;5045176;28;20057;-92
2021/11/02 03:50:40;;;;;;;9.57;5.22;;;7.10;97.80;;;;;;5057180;28;20412;-92
2021/11/02 03:59:10;;;;;;;10.40;4.78;;;7.00;97.70;;;;;;5057339;28;20136;-91
2021/11/02 04:22:41;;;;;;;8.18;3.92;;;7.00;97.60;;;;;;5047601;28;20052;-91
2021/11/02 04:24:16;;;;;;;8.15;4.60;;;6.90;97.80;;;;;;5046201;28;20052;-91
2021/11/02 04:30:01;;;;;;;7.47;4.57;;;6.90;98.00;;;;;;5054600;28;20057;-91
2021/11/02 04:48:42;;;;;;;7.10;4.43;;;6.90;97.60;;;;;;5054094;28;20045;-90
2021/11/02 05:11:00;;;;;;;10.15;4.57;;;6.80;97.70;;;;;;5053637;28;20053;-91
2021/11/02 05:54:02;;;;;;;8.05;5.00;;;6.60;97.90;;;;;;5054082;28;20076;-90
2021/11/02 05:56:35;;;;;;;9.32;5.60;;;6.60;97.90;;;;;;5052692;28;20059;-92
2021/11/02 05:59:30;;;;;;;8.35;5.10;;;6.60;98.00;;;;;;5053067;28;20056;-93
2021/11/02 06:29:51;;;;;;;10.23;5.60;;;6.50;98.10;;;;;;5044659;28;20049;-92
2021/11/02 06:32:21;;;;;;;9.23;4.93;;;6.50;98.20;;;;;;5046642;28;20049;-93
2021/11/02 06:35:03;;;;;;;9.00;4.70;;;6.50;98.20;;;;;;5052048;28;20111;-90
2021/11/02 06:40:13;;;;;;;14.82;6.35;;;6.50;97.90;;;;;;5032603;28;20045;-90
2021/11/02 06:48:17;;;;;;;10.85;5.80;;;6.50;97.90;;;;;;5034383;28;20055;-89
2021/11/02 06:53:41;;;;;;;10.65;5.47;;;6.50;98.10;;;;;;5050550;28;20060;-90
2021/11/02 06:59:39;;;;;;;8.73;5.10;;;6.50;98.00;;;;;;5036190;28;20053;-89
2021/11/02 07:16:31;;;;;;;12.82;7.80;;;6.60;98.20;;;;;;5037916;28;20053;-90
2021/11/02 07:19:36;;;;;;;9.27;5.70;;;6.60;98.10;;;;;;5050999;28;20087;-89
2021/11/02 08:48:28;;;;;;;15.20;10.40;;;7.20;98.70;;;;;;5042922;28;20051;-88
2021/11/02 08:50:56;;;;;;;15.40;9.60;;;7.30;98.70;;;;;;5041923;28;20044;-87
2021/11/02 08:53:24;;;;;;;14.55;9.80;;;7.30;98.80;;;;;;5043516;28;20092;-91
2021/11/02 08:55:52;;;;;;;13.25;8.45;;;7.40;98.70;;;;;;5048638;28;20075;-92
2021/11/02 08:58:22;;;;;;;15.40;11.27;;;7.40;98.70;;;;;;5048396;28;20044;-90
2021/11/02 09:00:47;;;;;;;14.05;8.68;;;7.40;98.80;;;;;;5054566;28;20151;-89
2021/11/02 09:03:21;;;;;;;15.30;9.02;;;7.40;98.80;;;;;;5039345;28;20548;-90
2021/11/02 09:06:00;;;;;;;14.30;10.07;;;7.50;98.80;;;;;;5044883;28;20055;-91
2021/11/02 09:08:29;;;;;;;14.43;9.93;;;7.50;98.80;;;;;;5037573;28;20052;-88
2021/11/02 09:10:55;;;;;;;14.07;8.80;;;7.50;98.80;;;;;;5029450;28;20048;-89
2021/11/02 09:13:23;;;;;;;14.55;9.90;;;7.50;98.80;;;;;;5038823;28;20037;-90
2021/11/02 09:15:51;;;;;;;11.18;8.68;;;7.60;98.90;;;;;;5052339;28;20040;-90
2021/11/02 09:18:20;;;;;;;14.20;9.98;;;7.60;98.80;;;;;;5036225;28;20084;-90
2021/11/02 09:20:46;;;;;;;18.08;11.70;;;7.60;98.80;;;;;;5036233;28;20542;-89
2021/11/02 09:23:12;;;;;;;13.30;10.20;;;7.60;98.80;;;;;;5031927;28;20511;-89
2021/11/02 09:25:39;;;;;;;15.15;10.60;;;7.70;98.90;;;;;;5034812;28;20389;-90
2021/11/02 09:28:04;;;;;;;16.55;11.45;;;7.70;98.90;;;;;;5029287;28;20554;-88
2021/11/02 09:30:31;;;;;;;16.92;12.90;;;7.70;98.80;;;;;;5029383;28;20037;-88
2021/11/02 09:32:57;;;;;;;19.75;12.45;;;7.70;98.90;;;;;;5026972;28;20488;-87
2021/11/02 09:35:32;;;;;;;17.35;12.50;;;7.70;98.90;;;;;;5032782;28;20045;-89
2021/11/02 09:38:00;;;;;;;16.67;9.50;;;7.80;99.30;;;;;;5026659;28;20106;-88
2021/11/02 09:40:45;;;;;;;13.50;10.32;;;7.80;98.90;;;;;;5051600;28;20128;-90
2021/11/02 09:43:41;;;;;;;18.73;13.27;;;7.80;98.70;;;;;;5027467;28;20037;-87
2021/11/02 09:46:18;;;;;;;12.40;9.80;;;7.80;98.80;;;;;;5033338;28;20128;-87
2021/11/02 09:48:59;;;;;;;19.85;13.07;;;7.90;98.80;;;;;;5035240;28;20041;-88
2021/11/02 09:51:59;;;;;;;16.45;12.57;;;7.90;98.80;;;;;;5033504;28;20045;-88
2021/11/02 09:55:02;;;;;;;22.55;14.75;;;7.90;98.70;;;;;;5038442;28;20072;-90
2021/11/02 09:58:04;;;;;;;17.02;12.85;;;8.00;98.70;;;;;;5027471;28;20045;-89
2021/11/02 10:00:47;;;;;;;19.85;14.65;;;8.00;98.70;;;;;;5033840;28;20381;-89
2021/11/02 10:03:33;;;;;;;19.00;12.73;;;8.00;98.70;;;;;;5028737;28;20046;-88
2021/11/02 10:06:18;;;;;;;18.52;13.13;;;8.10;98.70;;;;;;5021286;28;20037;-88
2021/11/02 10:08:53;;;;;;;17.27;12.80;;;8.10;98.80;;;;;;5034095;28;20047;-89
2021/11/02 10:11:57;;;;;;;18.17;14.18;;;8.10;98.80;;;;;;5023053;28;20053;-88
2021/11/02 10:14:43;;;;;;;18.00;12.80;;;8.10;98.70;;;;;;5031242;28;20107;-89
2021/11/02 10:17:26;;;;;;;12.95;10.43;;;8.20;98.80;;;;;;5023793;28;20045;-89
2021/11/02 10:19:58;;;;;;;;;;;8.20;98.70;;;;;;5029759;28;20402;-87
2021/11/02 10:22:49;;;;;;;17.42;12.55;;;8.10;98.50;;;;;;5032229;28;19920;-90
2021/11/02 10:25:16;;;;;;;16.13;11.85;;;8.20;98.70;;;;;;5037006;28;20059;-89
2021/11/02 10:27:59;;;;;;;14.25;11.02;;;8.20;98.70;;;;;;5033423;28;20500;-87
2021/11/02 10:30:55;;;;;;;16.75;12.25;;;8.30;98.60;;;;;;5038402;28;20381;-87
2021/11/02 10:33:23;;;;;;;16.38;12.90;;;8.30;98.70;;;;;;5022944;28;20048;-88
2021/11/02 10:36:17;;;;;;;18.70;14.05;;;8.30;98.60;;;;;;5035239;28;20045;-90
2021/11/02 10:38:44;;;;;;;18.23;11.75;;;8.40;98.60;;;;;;5037300;28;20099;-89
2021/11/02 10:41:14;;;;;;;16.15;11.20;;;8.40;98.60;;;;;;5036913;28;20055;-88
2021/11/02 10:43:48;;;;;;;17.48;12.45;;;8.50;98.60;;;;;;5055597;28;20555;-89
2021/11/02 10:46:14;;;;;;;;;;;8.50;98.60;;;;;;5039040;28;20068;-88
2021/11/02 10:48:51;;;;;;;17.23;12.60;;;8.50;98.40;;;;;;5037728;28;19924;-88
2021/11/02 10:51:38;;;;;;;16.13;12.40;;;8.50;98.80;;;;;;5056501;28;20052;-89
2021/11/02 10:54:20;;;;;;;16.77;12.57;;;8.60;98.50;;;;;;5046227;28;20037;-92
2021/11/02 10:57:17;;;;;;;16.23;13.52;;;8.60;98.50;;;;;;5034576;28;20045;-88
2021/11/02 10:59:46;;;;;;;16.63;12.60;;;8.70;98.60;;;;;;5033774;28;20056;-89
2021/11/02 11:02:23;;;;;;;17.63;14.18;;;8.70;98.60;;;;;;5046090;28;20045;-88
2021/11/02 11:04:50;;;;;;;16.73;13.18;;;8.70;98.70;;;;;;5048792;28;20041;-90
2021/11/02 11:07:17;;;;;;;21.10;13.02;;;8.80;98.80;;;;;;5046262;28;20060;-89
2021/11/02 11:09:47;;;;;;;18.38;12.00;;;8.80;98.80;;;;;;5037134;28;20052;-89
2021/11/02 11:12:14;;;;;;;17.15;12.18;;;8.80;98.80;;;;;;5030999;28;20036;-89
2021/11/02 11:14:45;;;;;;;16.50;11.98;;;8.90;98.70;;;;;;5038353;28;20090;-89
2021/11/02 11:17:15;;;;;;;15.98;11.95;;;8.90;98.70;;;;;;5032558;28;20071;-89
2021/11/02 11:19:48;;;;;;;15.43;11.38;;;8.90;98.60;;;;;;5034878;28;20134;-88
2021/11/02 11:22:20;;;;;;;14.73;8.82;;;9.00;98.60;;;;;;5049805;28;20048;-90
2021/11/02 11:24:55;;;;;;;13.07;8.63;;;9.00;98.60;;;;;;5038251;28;20140;-89
2021/11/02 11:27:21;;;;;;;14.68;9.13;;;9.00;98.60;;;;;;5050117;28;20488;-89
2021/11/02 11:29:49;;;;;;;16.40;9.10;;;9.10;98.60;;;;;;5045051;28;20499;-89
2021/11/02 11:32:16;;;;;;;12.57;8.20;;;9.10;98.50;;;;;;5039545;28;20100;-89
2021/11/02 11:34:45;;;;;;;13.38;8.98;;;9.10;98.50;;;;;;5034301;28;20060;-90
2021/11/02 11:37:14;;;;;;;12.07;7.43;;;9.20;98.60;;;;;;5027397;28;20040;-92
2021/11/02 11:39:42;;;;;;;11.50;7.97;;;9.20;98.50;;;;;;5048599;28;20049;-86
2021/11/02 11:42:12;;;;;;;14.75;8.02;;;9.30;98.50;;;;;;5042821;28;20037;-86
2021/11/02 11:44:43;;;;;;;12.05;7.63;;;9.30;98.40;;;;;;5044189;28;20041;-86
2021/11/02 11:47:11;;;;;;;11.38;7.20;;;9.30;98.30;;;;;;5048468;28;20127;-86
2021/11/02 11:49:40;;;;;;;11.93;7.63;;;9.30;98.30;;;;;;5036519;28;20155;-88
2021/11/02 11:52:08;;;;;;;11.32;7.20;;;9.30;98.20;;;;;;5039358;28;20074;-86
2021/11/02 11:54:49;;;;;;;11.48;7.22;;;9.40;98.10;;;;;;5045553;28;20045;-86
2021/11/02 11:57:37;;;;;;;10.68;7.13;;;9.30;98.00;;;;;;5022961;28;20040;-86
2021/11/02 12:00:16;;;;;;;9.13;6.63;;;9.30;97.90;;;;;;5032327;28;20041;-86
2021/11/02 12:02:56;;;;;;;11.18;6.25;;;9.40;97.80;;;;;;5037117;28;20079;-86
2021/11/02 12:05:22;;;;;;;12.93;6.95;;;9.40;97.80;;;;;;5037529;28;20083;-86
2021/11/02 12:08:18;;;;;;;9.65;6.03;;;9.40;97.80;;;;;;5043290;28;20447;-86
2021/11/02 12:10:45;;;;;;;10.73;6.28;;;9.40;97.60;;;;;;5035419;28;20048;-85
2021/11/02 12:13:13;;;;;;;9.77;6.00;;;9.40;97.70;;;;;;5044617;28;20519;-89
2021/11/02 12:15:47;;;;;;;11.98;5.35;;;9.40;97.70;;;;;;5051387;28;20037;-90
2021/11/02 12:18:16;;;;;;;9.52;5.55;;;9.40;97.60;;;;;;5039897;28;20057;-89
2021/11/02 12:20:43;;;;;;;10.38;5.60;;;9.40;97.60;;;;;;5041440;28;20041;-89
2021/11/02 12:23:17;;;;;;;9.88;6.30;;;9.40;97.50;;;;;;5047751;28;20126;-90
2021/11/02 12:25:56;;;;;;;9.05;5.80;;;9.40;97.50;;;;;;5040293;28;20134;-89
2021/11/02 12:28:41;;;;;;;9.82;5.60;;;9.50;97.50;;;;;;5051016;28;20049;-88
2021/11/02 12:31:09;;;;;;;9.88;6.15;;;9.40;97.40;;;;;;5042879;28;20493;-90
2021/11/02 12:33:37;;;;;;;12.15;6.03;;;9.50;97.50;;;;;;5042311;28;20477;-88
2021/11/02 12:36:06;;;;;;;12.70;5.72;;;9.50;97.50;;;;;;5039542;28;20408;-88
2021/11/02 12:38:34;;;;;;;7.82;5.25;;;9.50;97.50;;;;;;5050328;28;20040;-89
2021/11/02 12:41:00;;;;;;;10.98;5.95;;;9.50;97.50;;;;;;5032633;28;20064;-90
2021/11/02 12:43:31;;;;;;;12.52;5.68;;;9.50;97.40;;;;;;5041185;28;20045;-88
2021/11/02 12:45:59;;;;;;;10.45;5.55;;;9.50;97.40;;;;;;5038848;28;20053;-87
2021/11/02 12:48:26;;;;;;;11.52;5.88;;;9.50;97.40;;;;;;5046592;28;20037;-87
2021/11/02 12:50:53;;;;;;;10.40;5.32;;;9.50;97.30;;;;;;5034561;28;20404;-88
2021/11/02 12:53:20;;;;;;;10.35;5.60;;;9.50;97.30;;;;;;5040602;28;20045;-87
2021/11/02 12:55:46;;;;;;;10.18;6.32;;;9.60;97.30;;;;;;5036932;28;20466;-88
2021/11/02 12:58:11;;;;;;;8.93;5.80;;;9.60;97.30;;;;;;5048184;28;20044;-87
2021/11/02 13:00:59;;;;;;;8.02;5.35;;;9.60;97.30;;;;;;5040737;28;20447;-88
2021/11/02 13:03:27;;;;;;;8.73;6.05;;;9.60;97.30;;;;;;5032022;28;20051;-88
2021/11/02 13:06:08;;;;;;;9.02;5.60;;;9.60;97.30;;;;;;5029041;28;20049;-87
2021/11/02 13:08:53;;;;;;;8.68;6.10;;;9.60;97.20;;;;;;5033767;28;20053;-90
2021/11/02 13:11:21;;;;;;;10.18;5.88;;;9.60;97.20;;;;;;5047546;28;20067;-91
2021/11/02 13:14:04;;;;;;;8.95;5.65;;;9.70;97.20;;;;;;5053521;28;20056;-92
2021/11/02 13:16:50;;;;;;;13.05;6.15;;;9.70;97.20;;;;;;5032699;28;20064;-88
2021/11/02 13:19:16;;;;;;;9.50;5.50;;;9.70;97.20;;;;;;5023868;28;20045;-88
2021/11/02 13:21:43;;;;;;;8.13;5.60;;;9.70;97.30;;;;;;5034692;28;20131;-87
2021/11/02 13:24:16;;;;;;;8.10;5.45;;;9.70;97.20;;;;;;5035380;28;20056;-88
2021/11/02 13:26:44;;;;;;;12.00;5.90;;;9.80;97.30;;;;;;5011316;28;20512;-91
2021/11/02 13:29:12;;;;;;;8.82;5.63;;;9.80;97.20;;;;;;5022095;28;20044;-88
2021/11/02 13:31:38;;;;;;;13.48;5.80;;;9.80;97.20;;;;;;5034847;28;20052;-87
2021/11/02 13:34:16;;;;;;;10.73;6.18;;;9.80;97.10;;;;;;5035061;28;20049;-87
2021/11/02 13:36:42;;;;;;;11.00;6.15;;;9.80;97.10;;;;;;5034096;28;20041;-87
2021/11/02 13:39:10;;;;;;;9.63;5.90;;;9.80;97.10;;;;;;5034490;28;20357;-86
2021/11/02 13:41:40;;;;;;;8.25;5.68;;;9.90;97.10;;;;;;5034442;28;20048;-87
2021/11/02 13:44:09;;;;;;;9.65;6.00;;;9.80;97.20;;;;;;5033697;28;20036;-88
2021/11/02 13:46:40;;;;;;;8.50;5.07;;;9.80;97.10;;;;;;5033938;28;20488;-88
2021/11/02 13:49:08;;;;;;;9.75;5.70;;;9.80;97.20;;;;;;5025600;28;20043;-85
2021/11/02 13:51:34;;;;;;;9.18;5.68;;;9.80;97.20;;;;;;5030093;28;20071;-86
2021/11/02 13:54:00;;;;;;;14.05;6.18;;;9.90;97.20;;;;;;5027956;28;20037;-87
2021/11/02 13:56:29;;;;;;;10.50;6.18;;;9.90;97.20;;;;;;5029951;28;20047;-88
2021/11/02 13:58:56;;;;;;;9.90;6.00;;;9.90;97.20;;;;;;5031634;28;20045;-86
2021/11/02 14:01:46;;;;;;;7.95;5.80;;;9.90;97.20;;;;;;5035670;28;20044;-86
2021/11/02 14:04:27;;;;;;;10.70;6.47;;;9.90;97.10;;;;;;5048453;28;20040;-86
2021/11/02 14:07:07;;;;;;;11.07;6.53;;;9.90;97.20;;;;;;5036967;28;20041;-86
2021/11/02 14:09:39;;;;;;;8.77;5.93;;;9.90;97.20;;;;;;5049551;28;20066;-87
2021/11/02 14:12:27;;;;;;;8.63;5.60;;;9.90;97.30;;;;;;5045880;28;20464;-87
2021/11/02 14:15:11;;;;;;;8.40;5.53;;;9.90;97.20;;;;;;5042712;28;20128;-87
2021/11/02 14:17:41;;;;;;;8.77;5.60;;;9.90;97.30;;;;;;5046690;28;20056;-86
2021/11/02 14:20:10;;;;;;;8.60;5.30;;;9.90;97.40;;;;;;5041131;28;20037;-89
2021/11/02 14:22:47;;;;;;;8.10;5.20;;;9.90;97.40;;;;;;5042994;28;20041;-88
2021/11/02 14:25:17;;;;;;;10.43;5.85;;;10.00;97.40;;;;;;5037132;28;20037;-88
2021/11/02 14:27:45;;;;;;;9.25;5.72;;;10.00;97.40;;;;;;5045864;28;20053;-88
2021/11/02 14:30:32;;;;;;;8.15;5.05;;;10.00;97.40;;;;;;5043620;28;20373;-89
2021/11/02 14:33:04;;;;;;;7.45;5.13;;;10.00;97.40;;;;;;5047942;28;20047;-88
2021/11/02 14:36:03;;;;;;;9.50;4.65;;;10.00;97.40;;;;;;5045819;28;20052;-86
2021/11/02 14:38:44;;;;;;;9.20;5.40;;;10.00;97.40;;;;;;5050899;28;20181;-88
2021/11/02 14:41:29;;;;;;;8.68;4.90;;;10.00;97.50;;;;;;5034336;28;20129;-87
2021/11/02 14:44:14;;;;;;;8.55;5.03;;;10.00;97.40;;;;;;5038141;28;20389;-87
2021/11/02 14:46:57;;;;;;;8.20;4.82;;;10.00;97.40;;;;;;5042946;28;20044;-88
2021/11/02 14:49:28;;;;;;;8.60;4.30;;;10.00;97.50;;;;;;5045433;28;20045;-87
2021/11/02 14:52:24;;;;;;;7.80;4.40;;;10.00;97.50;;;;;;5050647;28;20036;-88
2021/11/02 14:54:49;;;;;;;7.70;3.92;;;10.00;97.40;;;;;;5052004;28;20044;-87
2021/11/02 14:57:18;;;;;;;7.68;3.72;;;10.00;97.50;;;;;;5054853;28;20528;-88
2021/11/02 15:00:02;;;;;;;6.35;3.78;;;10.00;97.50;;;;;;5054000;28;20084;-88
2021/11/02 15:02:33;;;;;;;7.40;4.07;;;10.00;97.40;;;;;;5046180;28;20452;-87
2021/11/02 15:05:06;;;;;;;;;;;10.00;97.60;;;;;;5050281;28;20037;-87
2021/11/02 15:07:34;;;;;;;8.63;4.38;;;9.90;97.30;;;;;;5046361;28;19929;-84
2021/11/02 15:10:05;;;;;;;8.05;3.95;;;9.90;97.60;;;;;;5048031;28;20072;-87
2021/11/02 15:12:30;;;;;;;7.97;4.22;;;9.90;97.60;;;;;;5054445;28;20408;-87
2021/11/02 15:14:58;;;;;;;11.75;6.68;;;9.90;97.60;;;;;;5046190;28;20040;-88
2021/11/02 15:17:23;;;;;;;12.25;6.47;;;9.90;97.60;;;;;;5049201;22;20057;-87
2021/11/02 15:19:49;;;;;;;30.50;15.93;;;9.90;97.60;;;;;;5095712;23;20378;-87
2021/11/02 15:22:18;;;;;;;23.75;12.95;;;9.90;97.60;;;;;;5053477;28;20068;-87
2021/11/02 15:24:50;;;;;;;25.17;12.45;;;9.90;97.70;;;;;;5037473;28;20076;-88
2021/11/02 15:27:17;;;;;;;11.05;6.15;;;9.90;97.70;;;;;;5038799;28;20437;-87
2021/11/02 15:29:46;;;;;;;9.70;4.75;;;9.90;97.70;;;;;;5037669;28;20405;-87
2021/11/02 15:32:15;;;;;;;9.30;5.43;;;9.90;97.70;;;;;;5034208;28;20056;-87
2021/11/02 15:34:44;;;;;;;7.32;4.55;;;9.90;97.70;;;;;;5033779;28;20045;-88
2021/11/02 15:37:16;;;;;;;8.82;4.82;;;9.90;97.70;;;;;;5032917;28;20038;-87
2021/11/02 15:39:43;;;;;;;8.00;5.07;;;9.90;97.70;;;;;;5034222;28;20055;-87
2021/11/02 15:42:25;;;;;;;9.45;5.40;;;9.80;97.70;;;;;;5034416;28;20156;-87
2021/11/02 15:45:28;;;;;;;8.63;4.97;;;9.90;97.70;;;;;;5023206;28;20051;-87
2021/11/02 15:50:28;;;;;;;7.65;4.60;;;9.80;97.80;;;;;;5107000;22;20072;-88
2021/11/02 15:52:58;;;;;;;8.23;4.65;;;9.90;97.70;;;;;;5040877;23;20119;-87
2021/11/02 15:55:26;;;;;;;7.32;4.60;;;9.90;97.80;;;;;;5025386;28;20516;-87
2021/11/02 15:57:57;;;;;;;6.32;4.20;;;9.80;97.90;;;;;;5013547;28;20378;-87
2021/11/02 16:00:25;;;;;;;7.30;4.40;;;9.80;97.90;;;;;;5052035;28;20488;-88
2021/11/02 16:02:51;;;;;;;7.00;4.60;;;9.80;97.90;;;;;;5053619;28;20045;-87
2021/11/02 16:05:24;;;;;;;6.65;4.28;;;9.80;97.80;;;;;;5053469;28;20132;-87
2021/11/02 16:07:51;;;;;;;6.80;4.28;;;9.80;98.10;;;;;;5055047;28;20059;-87
2021/11/02 16:10:22;;;;;;;6.30;4.03;;;9.80;97.80;;;;;;5053899;28;20071;-87
2021/11/02 16:12:48;;;;;;;7.03;4.35;;;9.80;97.80;;;;;;5053533;28;20131;-87
2021/11/02 16:15:17;;;;;;;7.45;4.60;;;9.80;97.80;;;;;;5053674;28;20149;-86
2021/11/02 16:17:48;;;;;;;6.68;4.05;;;9.80;97.80;;;;;;5033283;28;20049;-87
2021/11/02 16:20:35;;;;;;;8.43;3.75;;;9.80;97.80;;;;;;5039143;28;20033;-87
2021/11/02 16:23:04;;;;;;;6.13;3.92;;;9.80;97.50;;;;;;5032526;28;20124;-87
2021/11/02 16:25:33;;;;;;;6.72;4.10;;;9.70;97.60;;;;;;5012977;28;20052;-88
2021/11/02 16:28:12;;;;;;;6.40;4.07;;;9.70;97.60;;;;;;5013047;28;20099;-87
2021/11/02 16:30:40;;;;;;;7.15;4.28;;;9.70;97.60;;;;;;5014805;28;20046;-86
2021/11/02 16:33:06;;;;;;;5.53;3.80;;;9.70;97.70;;;;;;5024234;28;20091;-88
2021/11/02 16:35:38;;;;;;;6.30;4.05;;;9.70;97.70;;;;;;5033565;28;20041;-92
2021/11/02 16:38:36;;;;;;;6.15;3.75;;;9.70;97.70;;;;;;5032754;28;20045;-90
2021/11/02 16:41:22;;;;;;;5.70;3.83;;;9.70;97.70;;;;;;5033894;28;20057;-90
2021/11/02 16:43:53;;;;;;;7.75;4.22;;;9.60;97.60;;;;;;5025317;28;20486;-89
2021/11/02 16:46:34;;;;;;;6.55;3.90;;;9.60;97.80;;;;;;5032763;28;20046;-89
2021/11/02 16:49:09;;;;;;;6.15;3.80;;;9.60;97.70;;;;;;5033658;28;20048;-89
2021/11/02 16:51:52;;;;;;;7.03;3.85;;;9.60;97.60;;;;;;5033273;28;20062;-90
2021/11/02 16:54:20;;;;;;;6.57;4.18;;;9.60;97.70;;;;;;5026917;28;20106;-90
2021/11/02 16:57:08;;;;;;;6.97;4.30;;;9.60;98.00;;;;;;5016235;28;20049;-89
2021/11/02 16:59:40;;;;;;;7.25;4.38;;;9.60;97.80;;;;;;5048369;28;20087;-90
2021/11/02 17:02:18;;;;;;;5.82;3.92;;;9.60;97.80;;;;;;5053337;28;20045;-90
2021/11/02 17:05:01;;;;;;;5.78;3.55;;;9.60;97.80;;;;;;5044361;28;20128;-90
2021/11/02 17:07:49;;;;;;;6.07;4.03;;;9.60;97.60;;;;;;5032331;28;20041;-89
2021/11/02 17:10:25;;;;;;;5.75;3.85;;;9.60;97.60;;;;;;5024625;28;20042;-93
2021/11/02 17:13:00;;;;;;;5.97;4.22;;;9.60;97.70;;;;;;5014377;28;20053;-89
2021/11/02 17:15:51;;;;;;;7.63;4.07;;;9.60;97.70;;;;;;5026398;28;20053;-89
2021/11/02 17:18:22;;;;;;;6.60;3.95;;;9.60;97.70;;;;;;5013265;28;20046;-89
2021/11/02 17:21:04;;;;;;;7.22;4.47;;;9.50;97.80;;;;;;5027703;28;20081;-88
2021/11/02 17:23:30;;;;;;;5.20;3.70;;;9.60;97.70;;;;;;5033091;28;20041;-87
2021/11/02 17:25:56;;;;;;;6.93;4.13;;;9.50;97.70;;;;;;5031873;28;20551;-85
2021/11/02 17:28:22;;;;;;;5.50;3.60;;;9.60;97.70;;;;;;5031513;28;20037;-85
2021/11/02 17:30:48;;;;;;;6.32;4.03;;;9.60;97.70;;;;;;5032402;28;20048;-85
2021/11/02 17:33:15;;;;;;;5.30;3.58;;;9.60;97.80;;;;;;5032732;28;20049;-84
2021/11/02 17:35:43;;;;;;;6.00;3.88;;;9.50;97.70;;;;;;5027810;28;20110;-85
2021/11/02 17:38:09;;;;;;;6.13;3.88;;;9.60;97.80;;;;;;5033460;28;20045;-85
2021/11/02 17:40:35;;;;;;;6.53;3.63;;;9.50;97.80;;;;;;5031577;28;20034;-85
2021/11/02 17:43:02;;;;;;;6.40;4.00;;;9.60;97.80;;;;;;5026086;28;20043;-84
2021/11/02 17:45:29;;;;;;;6.60;4.10;;;9.60;98.10;;;;;;5030513;28;20057;-85
2021/11/02 17:47:56;;;;;;;6.47;3.83;;;9.50;97.70;;;;;;5031428;28;20045;-85
2021/11/02 17:50:25;;;;;;;6.07;3.85;;;9.60;97.70;;;;;;5036700;28;20040;-85
2021/11/02 17:52:55;;;;;;;5.68;3.78;;;9.60;97.70;;;;;;5052334;28;20079;-85
2021/11/02 17:55:21;;;;;;;5.82;3.42;;;9.50;97.60;;;;;;5035661;28;20068;-84
2021/11/02 17:57:49;;;;;;;6.28;3.72;;;9.50;97.60;;;;;;5031550;28;20136;-85
2021/11/02 18:00:17;;;;;;;6.78;4.50;;;9.50;97.60;;;;;;5031583;28;20128;-85
2021/11/02 18:02:44;;;;;;;6.38;3.92;;;9.50;97.60;;;;;;5031087;28;20077;-85
2021/11/02 18:05:11;;;;;;;5.95;3.47;;;9.50;97.60;;;;;;5032310;28;20115;-84
2021/11/02 18:07:37;;;;;;;6.25;3.80;;;9.50;97.50;;;;;;5032481;28;20113;-84
2021/11/02 18:10:04;;;;;;;5.80;3.85;;;9.50;97.50;;;;;;5030782;28;20365;-85